This is the latest recevied weather packets stored in our database for station/object HS3UAA-1. If no packets are shown the sender has not sent any weather packets the latest 10 day(s).
| Time | Temp. | Humidity | Pressure | Rain* | Wind** | Luminosity | Snow |
|---|---|---|---|---|---|---|---|
| 1787528664 | 33.33° C | 50% | 996 hPa | - | - | 0 W/m² | - |
| 1787528093 | 31.67° C | 53% | 995 hPa | - | - | 0 W/m² | - |
| 1787527771 | 31.67° C | 54% | 995 hPa | - | - | 0 W/m² | - |
| 1787527449 | 31.67° C | 53% | 995 hPa | - | - | 0 W/m² | - |
| 1787527127 | 31.67° C | 53% | 995 hPa | - | - | 0 W/m² | - |
| 1787526805 | 31.67° C | 53% | 995 hPa | - | - | 0 W/m² | - |
| 1787526483 | 31.67° C | 53% | 995 hPa | - | - | 0 W/m² | - |
| 1787526161 | 31.67° C | 53% | 995 hPa | - | - | 0 W/m² | - |
| 1787525839 | 32.22° C | 53% | 995 hPa | - | - | 0 W/m² | - |
| 1787525463 | 32.22° C | 53% | 995 hPa | - | - | 0 W/m² | - |
| 1787525141 | 31.67° C | 54% | 995 hPa | - | - | 0 W/m² | - |
| 1787524819 | 31.67° C | 53% | 995 hPa | - | - | 0 W/m² | - |
| 1787524497 | 32.78° C | 51% | 995 hPa | - | - | 0 W/m² | - |
| 1787524175 | 31.67° C | 53% | 995 hPa | - | - | 0 W/m² | - |
| 1787523853 | 31.67° C | 53% | 995 hPa | - | - | 0 W/m² | - |
| 1787523531 | 31.67° C | 54% | 995 hPa | - | - | 0 W/m² | - |
| 1787523209 | 31.67° C | 53% | 995 hPa | - | - | 0 W/m² | - |
| 1787522887 | 31.67° C | 53% | 995 hPa | - | - | 0 W/m² | - |
| 1787522565 | 32.22° C | 52% | 995 hPa | - | - | 0 W/m² | - |
| 1787522243 | 31.67° C | 53% | 995 hPa | - | - | 0 W/m² | - |
| 1787521921 | 32.22° C | 53% | 995 hPa | - | - | 0 W/m² | - |
| 1787521599 | 32.78° C | 51% | 995 hPa | - | - | 0 W/m² | - |
| 1787521277 | 32.22° C | 52% | 995 hPa | - | - | 0 W/m² | - |
| 1787520955 | 32.22° C | 53% | 995 hPa | - | - | 0 W/m² | - |
| 1787520633 | 32.78° C | 51% | 995 hPa | - | - | 0 W/m² | - |
* Rain since midnight (hover to see other rain measurements)
** Current wind speed in m/s (hover to see current wind gust speed)